createdAt,value
2023-01-28T00:01:58.566Z,83.24
2023-01-28T00:04:27.956Z,82.90
2023-01-28T00:06:55.791Z,82.97
2023-01-28T00:09:23.682Z,83.29
2023-01-28T00:11:51.551Z,82.98
2023-01-28T00:14:19.898Z,83.00
2023-01-28T00:16:47.783Z,83.04
2023-01-28T00:19:15.575Z,83.06
2023-01-28T00:21:44.791Z,83.32
2023-01-28T00:24:12.748Z,83.23
2023-01-28T00:26:40.566Z,83.38
2023-01-28T00:29:08.699Z,83.29
2023-01-28T00:31:37.804Z,83.21
2023-01-28T00:34:05.709Z,82.95
2023-01-28T00:36:35.356Z,83.29
2023-01-28T00:39:04.820Z,82.92
2023-01-28T00:41:32.783Z,82.95
2023-01-28T00:44:01.078Z,83.15
2023-01-28T00:46:28.954Z,83.24
2023-01-28T00:48:57.012Z,83.13
2023-01-28T00:51:31.304Z,83.00
2023-01-28T00:53:59.068Z,83.01
2023-01-28T00:56:29.053Z,83.30
2023-01-28T00:58:56.971Z,83.27
2023-01-28T01:01:27.529Z,82.98
2023-01-28T01:04:02.829Z,83.31
2023-01-28T01:06:32.337Z,83.20
2023-01-28T01:09:00.311Z,83.16
2023-01-28T01:11:29.646Z,83.31
2023-01-28T01:13:58.946Z,83.28
2023-01-28T01:16:29.844Z,83.38
2023-01-28T01:18:59.301Z,83.18
2023-01-28T01:21:30.174Z,83.10
2023-01-28T01:23:58.489Z,83.31
2023-01-28T01:26:27.495Z,83.24
2023-01-28T01:28:56.825Z,83.02
2023-01-28T01:31:24.673Z,83.27
2023-01-28T01:33:53.293Z,83.19
2023-01-28T01:36:22.191Z,83.05
2023-01-28T01:38:54.678Z,83.19
2023-01-28T01:41:28.946Z,83.29
2023-01-28T01:44:00.588Z,83.35
2023-01-28T01:46:37.237Z,83.13
2023-01-28T01:49:15.069Z,83.35
2023-01-28T01:51:45.265Z,83.16
2023-01-28T01:54:14.451Z,83.33
2023-01-28T01:56:48.018Z,83.55
2023-01-28T01:59:23.297Z,83.35
2023-01-28T02:01:51.184Z,83.42
2023-01-28T02:04:23.476Z,83.57
2023-01-28T02:06:51.408Z,83.43
2023-01-28T02:09:25.293Z,83.38
2023-01-28T02:11:56.564Z,83.08
2023-01-28T02:14:32.372Z,83.42
2023-01-28T02:17:01.670Z,83.50
2023-01-28T02:19:36.833Z,83.38
2023-01-28T02:22:23.130Z,83.46
2023-01-28T02:25:31.313Z,83.29
2023-01-28T02:28:03.554Z,83.22
2023-01-28T02:30:37.711Z,83.33
2023-01-28T02:33:10.947Z,83.34
2023-01-28T02:35:43.977Z,83.35
2023-01-28T02:38:17.530Z,83.46
2023-01-28T02:41:03.891Z,83.33
2023-01-28T02:43:33.417Z,83.31
2023-01-28T02:46:31.978Z,83.05
2023-01-28T02:49:00.484Z,83.23
2023-01-28T02:51:39.243Z,83.06
2023-01-28T02:54:12.593Z,83.38
2023-01-28T02:56:47.964Z,83.22
2023-01-28T02:59:34.250Z,83.31
2023-01-28T03:02:13.189Z,83.46
2023-01-28T03:04:48.191Z,83.18
2023-01-28T03:07:18.771Z,83.20
2023-01-28T03:09:48.713Z,83.07
2023-01-28T03:12:38.702Z,83.11
2023-01-28T03:15:28.888Z,83.38
2023-01-28T03:18:21.491Z,83.17
2023-01-28T03:21:13.498Z,83.25
2023-01-28T03:24:06.859Z,83.17
2023-01-28T03:26:56.758Z,83.48
2023-01-28T03:29:44.669Z,83.57
2023-01-28T03:32:32.055Z,83.22
2023-01-28T03:35:19.268Z,83.17
2023-01-28T03:37:47.317Z,83.24
2023-01-28T03:40:15.496Z,83.45
2023-01-28T03:42:43.300Z,83.16
2023-01-28T03:45:12.533Z,83.20
2023-01-28T03:47:41.003Z,83.47
2023-01-28T03:50:11.756Z,83.25
2023-01-28T03:52:39.616Z,83.19
2023-01-28T03:55:14.193Z,83.37
2023-01-28T03:57:44.788Z,83.37
2023-01-28T04:00:14.420Z,83.53
2023-01-28T04:02:42.295Z,83.64
2023-01-28T04:05:15.930Z,83.54
2023-01-28T04:07:43.908Z,83.58
2023-01-28T04:10:11.885Z,83.24
2023-01-28T04:12:41.645Z,83.36
2023-01-28T04:15:16.460Z,83.66
2023-01-28T04:17:48.533Z,83.60
2023-01-28T04:20:18.357Z,83.28
2023-01-28T04:22:46.177Z,83.56
2023-01-28T04:25:14.367Z,83.43
2023-01-28T04:27:42.314Z,83.24
2023-01-28T04:30:11.296Z,83.62
2023-01-28T04:32:39.373Z,83.41
2023-01-28T04:35:07.905Z,83.19
2023-01-28T04:37:37.162Z,83.37
2023-01-28T04:40:05.877Z,83.37
2023-01-28T04:42:33.641Z,83.33
2023-01-28T04:45:01.570Z,83.69
2023-01-28T04:47:29.417Z,83.62
2023-01-28T04:49:57.247Z,83.53
2023-01-28T04:52:25.352Z,83.61
2023-01-28T04:54:54.608Z,83.23
2023-01-28T04:57:22.455Z,83.55
2023-01-28T04:59:50.223Z,83.33
2023-01-28T05:02:18.060Z,83.64
2023-01-28T05:04:45.899Z,83.68
2023-01-28T05:07:13.888Z,83.62
2023-01-28T05:09:41.733Z,83.42
2023-01-28T05:12:10.952Z,83.57
2023-01-28T05:14:38.806Z,83.21
2023-01-28T05:17:06.686Z,83.37
2023-01-28T05:19:34.739Z,83.09
2023-01-28T05:22:02.657Z,83.42
2023-01-28T05:24:30.682Z,83.53
2023-01-28T05:26:58.567Z,83.00
2023-01-28T05:29:27.745Z,83.23
2023-01-28T05:31:55.659Z,83.17
2023-01-28T05:34:23.463Z,83.35
2023-01-28T05:36:51.366Z,83.59
2023-01-28T05:39:19.645Z,83.57
2023-01-28T05:41:47.463Z,83.14
2023-01-28T05:44:15.508Z,83.54
2023-01-28T05:46:46.673Z,83.63
2023-01-28T05:49:14.543Z,83.46
2023-01-28T05:51:42.428Z,83.46
2023-01-28T05:54:10.974Z,83.75
2023-01-28T05:56:40.311Z,83.58
2023-01-28T05:59:10.374Z,83.41
2023-01-28T06:01:38.220Z,83.06
2023-01-28T06:04:07.593Z,83.30
2023-01-28T06:06:35.569Z,83.25
2023-01-28T06:09:03.525Z,83.00
2023-01-28T06:11:31.457Z,82.97
2023-01-28T06:13:59.407Z,83.68
2023-01-28T06:16:27.153Z,83.38
2023-01-28T06:18:54.960Z,83.57
2023-01-28T06:21:24.124Z,83.10
2023-01-28T06:23:52.063Z,83.37
2023-01-28T06:26:20.137Z,83.39
2023-01-28T06:28:47.994Z,83.73
2023-01-28T06:31:15.848Z,83.44
2023-01-28T06:33:43.775Z,83.06
2023-01-28T06:36:11.822Z,83.35
2023-01-28T06:38:40.954Z,83.42
2023-01-28T06:41:08.917Z,83.54
2023-01-28T06:43:36.825Z,83.41
2023-01-28T06:46:04.799Z,83.44
2023-01-28T06:48:32.836Z,83.29
2023-01-28T06:51:00.726Z,83.49
2023-01-28T06:53:28.503Z,83.14
2023-01-28T06:55:57.771Z,83.11
2023-01-28T06:58:25.698Z,83.70
2023-01-28T07:00:54.722Z,83.44
2023-01-28T07:03:22.783Z,83.15
2023-01-28T07:05:50.751Z,83.36
2023-01-28T07:08:18.748Z,83.33
2023-01-28T07:10:46.540Z,83.24
2023-01-28T07:13:15.749Z,83.12
2023-01-28T07:15:43.693Z,83.38
2023-01-28T07:18:11.611Z,83.39
2023-01-28T07:20:39.423Z,83.27
2023-01-28T07:23:07.258Z,83.19
2023-01-28T07:25:35.231Z,83.16
2023-01-28T07:28:03.022Z,82.95
2023-01-28T07:30:32.292Z,83.38
2023-01-28T07:33:01.021Z,83.40
2023-01-28T07:35:29.769Z,83.43
2023-01-28T07:38:00.014Z,83.20
2023-01-28T07:40:29.587Z,83.15
2023-01-28T07:42:57.648Z,83.38
2023-01-28T07:45:26.586Z,83.64
2023-01-28T07:47:56.828Z,83.12
2023-01-28T07:50:24.990Z,83.23
2023-01-28T07:52:52.828Z,83.24
2023-01-28T07:55:20.650Z,83.06
2023-01-28T07:57:52.840Z,83.54
2023-01-28T08:00:22.287Z,83.37
2023-01-28T08:02:51.104Z,82.91
2023-01-28T08:05:22.297Z,83.44
2023-01-28T08:07:50.425Z,82.88
2023-01-28T08:10:20.135Z,82.95
2023-01-28T08:12:55.005Z,83.06
2023-01-28T08:15:23.671Z,83.09
2023-01-28T08:17:51.520Z,83.05
2023-01-28T08:20:20.874Z,83.14
2023-01-28T08:22:48.679Z,83.21
2023-01-28T08:25:16.626Z,83.52
2023-01-28T08:27:44.841Z,83.17
2023-01-28T08:30:13.572Z,83.27
2023-01-28T08:32:41.628Z,83.08
2023-01-28T08:35:10.060Z,83.07
2023-01-28T08:37:39.249Z,83.00
2023-01-28T08:40:08.401Z,83.23
2023-01-28T08:42:36.346Z,83.41
2023-01-28T08:45:04.406Z,83.01
2023-01-28T08:47:32.215Z,83.18
2023-01-28T08:50:00.040Z,83.42
2023-01-28T08:52:28.144Z,83.16
2023-01-28T08:54:57.290Z,83.04
2023-01-28T08:57:25.295Z,83.04
2023-01-28T08:59:53.129Z,82.96
2023-01-28T09:02:31.102Z,83.22
2023-01-28T09:04:59.288Z,83.03
2023-01-28T09:07:27.085Z,83.26
2023-01-28T09:09:54.923Z,83.37
2023-01-28T09:12:24.325Z,83.17
2023-01-28T09:14:52.289Z,83.21
2023-01-28T09:17:20.569Z,83.26
2023-01-28T09:19:48.438Z,83.04
2023-01-28T09:22:16.301Z,82.92
2023-01-28T09:24:44.144Z,83.32
2023-01-28T09:27:13.398Z,83.03
2023-01-28T09:29:42.537Z,83.36
2023-01-28T09:32:10.456Z,83.16
2023-01-28T09:34:39.223Z,83.20
2023-01-28T09:37:07.103Z,83.09
2023-01-28T09:39:34.899Z,83.20
2023-01-28T09:42:19.628Z,83.31
2023-01-28T09:45:01.404Z,83.18
2023-01-28T09:47:33.808Z,82.92
2023-01-28T09:50:04.286Z,83.26
2023-01-28T09:52:36.472Z,83.40
2023-01-28T09:55:07.981Z,83.22
2023-01-28T09:57:42.911Z,83.20
2023-01-28T10:00:16.622Z,83.14
2023-01-28T10:02:59.013Z,83.29
2023-01-28T10:05:34.994Z,82.98
2023-01-28T10:08:16.377Z,83.08
2023-01-28T10:10:48.488Z,83.30
2023-01-28T10:13:29.750Z,83.26
2023-01-28T10:16:25.484Z,83.24
2023-01-28T10:18:58.173Z,83.12
2023-01-28T10:21:32.257Z,83.23
2023-01-28T10:24:04.607Z,83.15
2023-01-28T10:26:36.962Z,83.43
2023-01-28T10:29:12.083Z,83.04
2023-01-28T10:31:48.567Z,82.99
2023-01-28T10:34:18.977Z,83.01
2023-01-28T10:36:48.506Z,83.33
2023-01-28T10:39:17.905Z,83.16
2023-01-28T10:41:57.383Z,82.95
2023-01-28T10:44:33.567Z,83.34
2023-01-28T10:47:05.842Z,83.17
2023-01-28T10:49:41.338Z,83.46
2023-01-28T10:52:13.579Z,82.81
2023-01-28T10:54:41.406Z,83.07
2023-01-28T10:57:14.484Z,82.97
2023-01-28T10:59:43.127Z,83.17
2023-01-28T11:02:28.114Z,83.14
2023-01-28T11:05:04.625Z,83.31
2023-01-28T11:07:32.413Z,83.27
2023-01-28T11:10:00.272Z,83.54
2023-01-28T11:12:29.961Z,83.57
2023-01-28T11:14:59.918Z,83.55
2023-01-28T11:17:32.036Z,82.92
2023-01-28T11:20:09.967Z,83.75
2023-01-28T11:22:40.722Z,83.13
2023-01-28T11:25:19.702Z,82.89
2023-01-28T11:27:50.190Z,83.56
2023-01-28T11:30:23.317Z,83.29
2023-01-28T11:33:00.191Z,83.44
2023-01-28T11:35:30.955Z,83.57
2023-01-28T11:37:59.897Z,83.02
2023-01-28T11:40:29.048Z,83.11
2023-01-28T11:42:58.394Z,83.26
2023-01-28T11:45:35.663Z,83.07
2023-01-28T11:48:16.091Z,83.16
2023-01-28T11:50:52.645Z,83.43
2023-01-28T11:53:47.376Z,83.08
2023-01-28T11:56:29.290Z,83.09
2023-01-28T11:59:09.370Z,82.85
2023-01-28T12:01:45.602Z,82.66
2023-01-28T12:04:23.859Z,82.88
2023-01-28T12:07:11.134Z,82.95
2023-01-28T12:09:55.435Z,83.25
2023-01-28T12:12:51.363Z,82.72
2023-01-28T12:15:49.967Z,83.25
2023-01-28T12:18:33.499Z,82.73
2023-01-28T12:21:08.456Z,82.70
2023-01-28T12:23:54.029Z,83.18
2023-01-28T12:26:29.029Z,82.98
2023-01-28T12:29:17.637Z,83.15
2023-01-28T12:32:04.626Z,82.92
2023-01-28T12:34:49.455Z,82.63
2023-01-28T12:37:27.441Z,82.84
2023-01-28T12:40:15.974Z,83.20
2023-01-28T12:42:49.426Z,82.94
2023-01-28T12:45:21.741Z,82.29
2023-01-28T12:47:54.586Z,82.60
2023-01-28T12:50:26.792Z,82.32
2023-01-28T12:52:59.404Z,82.58
2023-01-28T12:55:40.946Z,82.55
2023-01-28T12:58:17.388Z,82.27
2023-01-28T13:00:49.740Z,82.65
2023-01-28T13:03:22.679Z,82.67
2023-01-28T13:05:53.296Z,82.74
2023-01-28T13:08:25.304Z,82.56
2023-01-28T13:10:54.899Z,82.76
2023-01-28T13:13:28.934Z,82.35
2023-01-28T13:15:56.956Z,83.09
2023-01-28T13:18:44.243Z,82.83
2023-01-28T13:21:17.663Z,82.46
2023-01-28T13:23:48.713Z,82.99
2023-01-28T13:26:31.730Z,82.68
2023-01-28T13:29:20.944Z,82.76
2023-01-28T13:31:52.286Z,82.48
2023-01-28T13:34:37.355Z,82.60
2023-01-28T13:37:16.650Z,82.50
2023-01-28T13:39:51.455Z,82.51
2023-01-28T13:42:26.008Z,82.39
2023-01-28T13:44:54.169Z,82.26
2023-01-28T13:47:27.194Z,82.50
2023-01-28T13:50:02.743Z,82.53
2023-01-28T13:52:33.344Z,82.46
2023-01-28T13:55:06.498Z,82.29
2023-01-28T13:58:14.267Z,82.08
2023-01-28T14:00:59.445Z,82.46
2023-01-28T14:03:51.299Z,82.23
2023-01-28T14:06:42.338Z,82.21
2023-01-28T14:09:39.637Z,82.40
2023-01-28T14:12:34.751Z,82.25
2023-01-28T14:15:20.876Z,82.32
2023-01-28T14:17:52.081Z,82.30
2023-01-28T14:20:24.199Z,82.24
2023-01-28T14:22:56.037Z,82.00
2023-01-28T14:25:31.373Z,82.15
2023-01-28T14:28:02.994Z,81.83
2023-01-28T14:30:42.704Z,82.05
2023-01-28T14:33:13.041Z,81.97
2023-01-28T14:35:46.131Z,82.04
2023-01-28T14:38:17.840Z,82.15
2023-01-28T14:40:46.854Z,81.93
2023-01-28T14:43:19.621Z,82.15
2023-01-28T14:46:09.880Z,82.50
2023-01-28T14:48:49.495Z,81.98
2023-01-28T14:51:48.028Z,81.95
2023-01-28T14:54:37.521Z,81.79
2023-01-28T14:57:20.709Z,82.07
2023-01-28T14:59:53.962Z,82.03
2023-01-28T15:02:24.861Z,81.87
2023-01-28T15:04:53.680Z,82.12
2023-01-28T15:07:23.737Z,81.69
2023-01-28T15:10:01.686Z,81.81
2023-01-28T15:12:31.090Z,82.11
2023-01-28T15:15:08.711Z,81.88
2023-01-28T15:17:38.825Z,81.85
2023-01-28T15:20:09.501Z,81.95
2023-01-28T15:22:38.518Z,81.98
2023-01-28T15:25:06.672Z,81.90
2023-01-28T15:27:34.581Z,82.06
2023-01-28T15:30:03.758Z,81.91
2023-01-28T15:32:32.886Z,81.88
2023-01-28T15:35:02.070Z,81.51
2023-01-28T15:37:30.022Z,81.81
2023-01-28T15:40:07.089Z,81.90
2023-01-28T15:42:35.655Z,81.86
2023-01-28T15:45:05.508Z,81.64
2023-01-28T15:47:35.624Z,82.17
2023-01-28T15:50:07.633Z,81.45
2023-01-28T15:52:37.440Z,82.03
2023-01-28T15:55:08.013Z,81.83
2023-01-28T15:57:36.732Z,82.13
2023-01-28T16:00:13.277Z,81.97
2023-01-28T16:02:45.735Z,81.99
2023-01-28T16:05:34.620Z,81.56
2023-01-28T16:08:05.309Z,81.52
2023-01-28T16:10:33.327Z,81.69
2023-01-28T16:13:07.347Z,81.68
2023-01-28T16:15:38.501Z,81.59
2023-01-28T16:18:07.706Z,81.72
2023-01-28T16:20:35.493Z,82.00
2023-01-28T16:23:04.673Z,81.72
2023-01-28T16:25:35.025Z,81.63
2023-01-28T16:28:04.142Z,81.62
2023-01-28T16:30:32.596Z,81.61
2023-01-28T16:33:02.455Z,81.80
2023-01-28T16:35:47.122Z,81.56
2023-01-28T16:38:19.299Z,81.71
2023-01-28T16:40:48.114Z,81.83
2023-01-28T16:43:17.527Z,81.74
2023-01-28T16:45:46.128Z,81.86
2023-01-28T16:48:15.282Z,81.56
2023-01-28T16:50:44.037Z,81.67
2023-01-28T16:53:28.328Z,81.75
2023-01-28T16:55:56.845Z,82.04
2023-01-28T16:58:27.616Z,81.64
2023-01-28T17:00:55.914Z,81.83
2023-01-28T17:03:25.326Z,81.56
2023-01-28T17:05:53.117Z,81.86
2023-01-28T17:08:20.909Z,81.75
2023-01-28T17:10:53.750Z,81.70
2023-01-28T17:13:23.099Z,82.07
2023-01-28T17:15:51.085Z,81.58
2023-01-28T17:18:19.168Z,81.60
2023-01-28T17:20:48.402Z,81.86
2023-01-28T17:23:17.489Z,81.95
2023-01-28T17:25:45.554Z,81.95
2023-01-28T17:28:13.292Z,81.85
2023-01-28T17:30:42.005Z,81.83
2023-01-28T17:33:10.270Z,81.93
2023-01-28T17:35:38.369Z,81.81
2023-01-28T17:38:07.619Z,81.78
2023-01-28T17:40:35.495Z,81.62
2023-01-28T17:43:03.289Z,81.87
2023-01-28T17:45:32.236Z,82.08
2023-01-28T17:48:00.228Z,81.63
2023-01-28T17:50:28.231Z,81.38
2023-01-28T17:52:56.761Z,81.65
2023-01-28T17:55:26.810Z,81.84
2023-01-28T17:57:54.635Z,81.51
2023-01-28T18:00:22.941Z,81.63
2023-01-28T18:02:52.573Z,81.97
2023-01-28T18:05:20.807Z,81.59
2023-01-28T18:07:50.256Z,81.54
2023-01-28T18:10:18.876Z,81.75
2023-01-28T18:12:48.223Z,81.95
2023-01-28T18:15:16.413Z,81.92
2023-01-28T18:17:44.621Z,81.72
2023-01-28T18:20:12.770Z,81.99
2023-01-28T18:22:40.583Z,81.76
2023-01-28T18:25:09.241Z,81.37
2023-01-28T18:27:37.077Z,81.70
2023-01-28T18:30:07.164Z,81.72
2023-01-28T18:32:35.617Z,81.77
2023-01-28T18:35:03.535Z,81.61
2023-01-28T18:37:31.321Z,81.48
2023-01-28T18:39:59.185Z,81.93
2023-01-28T18:42:27.396Z,81.61
2023-01-28T18:44:55.259Z,81.88
2023-01-28T18:47:24.524Z,82.04
2023-01-28T18:49:52.306Z,81.68
2023-01-28T18:52:20.253Z,82.12
2023-01-28T18:54:48.128Z,81.96
2023-01-28T18:57:16.280Z,81.97
2023-01-28T18:59:44.077Z,81.75
2023-01-28T19:02:15.790Z,81.89
2023-01-28T19:04:44.925Z,82.22
2023-01-28T19:07:13.322Z,81.79
2023-01-28T19:09:41.093Z,81.95
2023-01-28T19:12:08.978Z,81.78
2023-01-28T19:14:36.746Z,81.61
2023-01-28T19:17:04.610Z,81.64
2023-01-28T19:19:32.553Z,82.23
2023-01-28T19:22:02.389Z,82.09
2023-01-28T19:24:31.707Z,82.41
2023-01-28T19:26:59.556Z,81.94
2023-01-28T19:29:28.582Z,81.78
2023-01-28T19:31:56.442Z,81.81
2023-01-28T19:34:24.275Z,82.33
2023-01-28T19:36:52.115Z,82.03
2023-01-28T19:39:21.468Z,82.30
2023-01-28T19:41:49.197Z,82.07
2023-01-28T19:44:16.972Z,81.72
2023-01-28T19:46:44.959Z,81.76
2023-01-28T19:49:13.141Z,82.38
2023-01-28T19:51:41.049Z,82.45
2023-01-28T19:54:08.955Z,82.24
2023-01-28T19:56:38.666Z,81.76
2023-01-28T19:59:06.922Z,82.21
2023-01-28T20:01:36.007Z,82.44
2023-01-28T20:04:04.819Z,82.05
2023-01-28T20:06:33.777Z,82.12
2023-01-28T20:09:05.085Z,82.15
2023-01-28T20:11:33.364Z,81.96
2023-01-28T20:14:02.825Z,82.17
2023-01-28T20:16:32.163Z,82.50
2023-01-28T20:19:01.971Z,82.16
2023-01-28T20:21:30.750Z,81.96
2023-01-28T20:24:00.640Z,82.24
2023-01-28T20:26:31.252Z,82.50
2023-01-28T20:29:03.007Z,82.58
2023-01-28T20:31:31.083Z,82.62
2023-01-28T20:33:59.174Z,82.40
2023-01-28T20:36:27.051Z,81.90
2023-01-28T20:38:54.965Z,82.15
2023-01-28T20:41:25.328Z,82.13
2023-01-28T20:43:54.056Z,82.28
2023-01-28T20:46:24.745Z,82.27
2023-01-28T20:48:54.997Z,82.51
2023-01-28T20:51:25.953Z,82.08
2023-01-28T20:53:54.047Z,82.11
2023-01-28T20:56:24.314Z,82.14
2023-01-28T20:58:56.128Z,82.19
2023-01-28T21:01:27.699Z,82.31
2023-01-28T21:03:56.546Z,82.24
2023-01-28T21:06:25.376Z,82.09
2023-01-28T21:08:54.110Z,82.20
2023-01-28T21:11:23.334Z,82.72
2023-01-28T21:13:51.418Z,82.30
2023-01-28T21:16:19.459Z,82.17
2023-01-28T21:18:49.151Z,82.77
2023-01-28T21:21:20.079Z,82.17
2023-01-28T21:23:48.251Z,82.25
2023-01-28T21:26:16.453Z,82.41
2023-01-28T21:28:44.636Z,82.14
2023-01-28T21:31:15.898Z,82.47
2023-01-28T21:33:44.146Z,82.80
2023-01-28T21:36:15.975Z,82.48
2023-01-28T21:38:44.106Z,82.06
2023-01-28T21:41:12.057Z,82.51
2023-01-28T21:43:39.871Z,82.70
2023-01-28T21:46:07.684Z,82.62
2023-01-28T21:48:35.676Z,82.48
2023-01-28T21:51:25.711Z,82.33
2023-01-28T21:53:55.189Z,82.37
2023-01-28T21:56:23.034Z,82.87
2023-01-28T21:59:08.449Z,82.86
2023-01-28T22:01:36.336Z,82.54
2023-01-28T22:04:04.155Z,82.57
2023-01-28T22:06:31.958Z,82.49
2023-01-28T22:09:01.631Z,82.43
2023-01-28T22:11:29.614Z,82.59
2023-01-28T22:13:57.541Z,82.39
2023-01-28T22:16:25.302Z,82.64
2023-01-28T22:18:53.059Z,82.50
2023-01-28T22:21:20.940Z,82.56
2023-01-28T22:23:48.749Z,82.90
2023-01-28T22:26:18.184Z,82.64
2023-01-28T22:28:46.030Z,82.96
2023-01-28T22:31:15.365Z,82.64
2023-01-28T22:33:44.061Z,82.55
2023-01-28T22:36:15.232Z,82.89
2023-01-28T22:38:44.375Z,82.83
2023-01-28T22:41:14.447Z,82.60
2023-01-28T22:43:43.793Z,82.40
2023-01-28T22:46:12.519Z,82.82
2023-01-28T22:48:40.931Z,82.54
2023-01-28T22:51:12.368Z,83.10
2023-01-28T22:53:40.249Z,82.48
2023-01-28T22:56:08.664Z,82.78
2023-01-28T22:58:36.501Z,82.97
2023-01-28T23:01:06.293Z,82.88
2023-01-28T23:03:34.629Z,82.92
2023-01-28T23:06:04.548Z,82.65
2023-01-28T23:08:33.578Z,82.85
2023-01-28T23:11:02.891Z,82.74
2023-01-28T23:13:52.957Z,82.93
2023-01-28T23:16:39.843Z,82.69
2023-01-28T23:19:27.283Z,83.08
2023-01-28T23:22:12.943Z,82.78
2023-01-28T23:24:40.863Z,83.14
2023-01-28T23:27:09.286Z,82.82
2023-01-28T23:29:38.499Z,83.14
2023-01-28T23:32:10.977Z,83.04
2023-01-28T23:34:42.130Z,83.16
2023-01-28T23:37:10.984Z,83.24
2023-01-28T23:39:38.725Z,83.16
2023-01-28T23:42:10.988Z,83.04
2023-01-28T23:44:38.827Z,83.24
2023-01-28T23:47:08.091Z,83.31
2023-01-28T23:49:36.040Z,83.09
2023-01-28T23:52:05.064Z,83.21
2023-01-28T23:54:33.284Z,83.48
2023-01-28T23:57:01.192Z,83.29
2023-01-28T23:59:29.356Z,82.81
